Terminal Aerodrome Forecast
Issued by NWS

Home | Current Version | Previous Version | Text Only | Print | Product List | Glossary On
Versions: 1 2 3 4 5 6 7 8 9 10 11 12
000
FTUS44 KLZK 282300
TAFADF
TAF
KADF 282340Z 2900/2924 16006KT P6SM SCT250 WS020/20035KT
     FM290900 23006KT P6SM SCT250 WS020/24045KT
     FM291200 28005KT P6SM SCT015 SCT250
     FM291700 34010G18KT P6SM SCT025=

USA.gov is the U.S. government's official web portal to all federal, state and local government web resources and services.